KGRF/GRF METAR and TAF weather

Enter ICAO airport designator
Station Type Date Time Source
KGRF METAR 2020/09/19 23:58 UTC NOAA

KGRF 192358Z AUTO 23007KT 10SM FEW041 21/18 A3004 RMK AO2 RAE06 SLP176 P0000 60000 T02120176 10212 20177 58002 $


Station Type Date Time Source
KGRF Decoded METAR 2020/09/19 23:58 UTC NOAA

Fort Lewis / Gray U. S. Army Airfield, WA, United States (KGRF) 47-07N 122-33W 87M
Sep 19, 2020 - 07:58 PM EDT / 2020.09.19 2358 UTC
Wind: from the SW (230 degrees) at 8 MPH (7 KT):0
Visibility: 10 mile(s):0
Sky conditions: mostly clear
Precipitation last hour: A trace
Temperature: 70.2 F (21.2 C)
Dew Point: 63.7 F (17.6 C)
Relative Humidity: 79%
Pressure (altimeter): 30.04 in. Hg (1017 hPa)
Pressure tendency: 0.01 inches (0.2 hPa) lower than three hours ago
ob: KGRF 192358Z AUTO 23007KT 10SM FEW041 21/18 A3004 RMK AO2 RAE06 SLP176 P0000 60000 T02120176 10212 20177 58002
cycle: 0

Station Type Date Time Source
KGRF TAF 2020/09/19 21:16 UTC NOAA

TAF KGRF 192100Z 1921/2103 23010G15KT 8000 -RA OVC008 QNH3005INS
BECMG 2002/2003 21006KT 9999 VCSH BKN015 QNH3007INS
BECMG 2017/2018 30003KT 9000 BR BKN010 QNH3008INS TX19/2021Z TN14/2012Z

Example: see airport list